Time;durP1;ratioP1;P1;durP2;ratioP2;P2;SDS_P1;SDS_P2;PMS_P1;PMS_P2;Temp;Humidity;BMP_temperature;BMP_pressure;BME280_temperature;BME280_humidity;BME280_pressure;Samples;Min_cycle;Max_cycle;Signal;HPM_P1;HPM_P2
2021/10/19 00:00:53;;;;;;;14.85;10.90;;;;;;;12.38;100.00;101688.88;10473573;28;20048;-85
2021/10/19 00:05:55;;;;;;;13.73;10.30;;;;;;;12.31;100.00;101688.69;10461235;28;20571;-84
2021/10/19 00:10:56;;;;;;;15.93;11.32;;;;;;;12.26;100.00;101695.53;10471408;28;20057;-84
2021/10/19 00:15:58;;;;;;;14.48;10.77;;;;;;;12.29;100.00;101701.63;10460382;28;20053;-84
2021/10/19 00:20:59;;;;;;;18.27;12.50;;;;;;;12.30;100.00;101694.72;10460855;28;20095;-84
2021/10/19 00:26:01;;;;;;;18.95;12.77;;;;;;;12.30;100.00;101702.50;10460024;28;20136;-85
2021/10/19 00:31:02;;;;;;;17.42;11.95;;;;;;;12.20;100.00;101699.72;10488885;28;20053;-85
2021/10/19 00:36:04;;;;;;;17.60;12.23;;;;;;;12.16;100.00;101695.31;10484523;28;20052;-85
2021/10/19 00:41:05;;;;;;;15.85;11.50;;;;;;;12.09;100.00;101682.19;10481776;28;20055;-86
2021/10/19 00:46:12;;;;;;;16.90;12.73;;;;;;;12.07;100.00;101682.13;10460374;28;20045;-85
2021/10/19 00:51:15;;;;;;;18.55;13.23;;;;;;;12.05;100.00;101681.22;10472422;28;20091;-85
2021/10/19 00:56:17;;;;;;;13.98;10.95;;;;;;;12.03;100.00;101674.25;10473209;28;20060;-84
2021/10/19 01:01:19;;;;;;;16.80;12.32;;;;;;;12.03;100.00;101663.88;10482276;28;20099;-85
2021/10/19 01:06:21;;;;;;;18.75;13.88;;;;;;;12.03;100.00;101669.06;10479503;28;20102;-85
2021/10/19 01:11:23;;;;;;;17.75;12.48;;;;;;;12.03;100.00;101662.16;10466682;28;20052;-85
2021/10/19 01:16:24;;;;;;;14.63;11.75;;;;;;;12.11;100.00;101667.50;10458314;28;20059;-85
2021/10/19 01:21:26;;;;;;;17.95;13.27;;;;;;;12.14;100.00;101647.72;10457558;28;20441;-84
2021/10/19 01:26:28;;;;;;;18.48;13.45;;;;;;;12.24;100.00;101638.38;10456965;28;20048;-85
2021/10/19 01:31:29;;;;;;;19.48;14.13;;;;;;;12.27;100.00;101635.00;10486938;28;20061;-84
2021/10/19 01:36:31;;;;;;;19.42;14.00;;;;;;;12.35;100.00;101620.44;10470642;28;20084;-84
2021/10/19 01:41:32;;;;;;;19.50;13.68;;;;;;;12.36;100.00;101623.06;10457240;28;20098;-84
2021/10/19 01:46:34;;;;;;;19.13;14.23;;;;;;;12.38;100.00;101621.41;10456329;28;20052;-84
2021/10/19 01:51:36;;;;;;;15.98;12.88;;;;;;;12.31;100.00;101613.44;10467641;28;20155;-85
2021/10/19 01:56:37;;;;;;;14.98;12.38;;;;;;;12.22;100.00;101610.69;10462975;28;20057;-84
2021/10/19 02:01:39;;;;;;;17.30;12.85;;;;;;;12.23;100.00;101599.44;10461972;28;20056;-84
2021/10/19 02:06:41;;;;;;;17.75;12.68;;;;;;;12.22;100.00;101584.72;10464872;28;20063;-84
2021/10/19 02:11:42;;;;;;;20.15;12.90;;;;;;;12.18;100.00;101579.47;10475008;28;20063;-84
2021/10/19 02:16:44;;;;;;;15.80;12.85;;;;;;;12.22;100.00;101580.41;10457069;28;20045;-84
2021/10/19 02:21:45;;;;;;;18.45;14.02;;;;;;;12.21;100.00;101568.28;10468995;28;20056;-84
2021/10/19 02:26:47;;;;;;;19.42;13.73;;;;;;;12.25;100.00;101556.25;10468116;28;20097;-83
2021/10/19 02:31:49;;;;;;;16.45;12.80;;;;;;;12.33;100.00;101560.75;10455172;28;20057;-84
2021/10/19 02:36:51;;;;;;;19.27;13.52;;;;;;;12.41;100.00;101564.34;10454882;28;20041;-84
2021/10/19 02:41:52;;;;;;;15.82;12.68;;;;;;;12.50;100.00;101552.41;10455699;28;20063;-84
2021/10/19 02:46:54;;;;;;;15.32;12.43;;;;;;;12.47;100.00;101548.00;10466234;28;20048;-84
2021/10/19 02:51:55;;;;;;;16.50;12.13;;;;;;;12.69;100.00;101551.88;10474528;28;20053;-84
2021/10/19 02:56:57;;;;;;;15.00;13.30;;;;;;;12.73;100.00;101544.16;10453898;28;20071;-83
2021/10/19 03:01:58;;;;;;;15.20;12.75;;;;;;;12.74;100.00;101537.25;10464063;28;20435;-84
2021/10/19 03:07:00;;;;;;;16.05;11.68;;;;;;;12.73;100.00;101536.38;10478979;28;20114;-85
2021/10/19 03:12:02;;;;;;;16.27;12.27;;;;;;;12.91;100.00;101542.72;10456741;28;20481;-84
2021/10/19 03:17:04;;;;;;;17.88;13.30;;;;;;;12.85;100.00;101538.31;10453640;28;20047;-84
2021/10/19 03:22:05;;;;;;;19.05;13.23;;;;;;;12.86;100.00;101532.25;10461680;28;20509;-85
2021/10/19 03:27:07;;;;;;;21.13;14.15;;;;;;;12.87;100.00;101527.94;10467536;28;20094;-84
2021/10/19 03:32:09;;;;;;;18.52;13.88;;;;;;;12.86;100.00;101519.28;10467156;28;20079;-85
2021/10/19 03:37:11;;;;;;;18.17;13.20;;;;;;;12.84;100.00;101518.38;10467528;28;20059;-84
2021/10/19 03:42:12;;;;;;;17.17;13.45;;;;;;;12.89;100.00;101524.53;10468073;28;20059;-84
2021/10/19 03:47:14;;;;;;;17.40;13.35;;;;;;;12.92;100.00;101508.97;10467057;28;20051;-84
2021/10/19 03:52:15;;;;;;;18.45;14.15;;;;;;;12.98;100.00;101506.47;10478135;28;20048;-85
2021/10/19 03:57:17;;;;;;;18.63;13.90;;;;;;;12.87;100.00;101492.44;10468659;28;20078;-85
2021/10/19 04:02:18;;;;;;;17.40;13.43;;;;;;;13.04;100.00;101503.09;10466744;28;20048;-84
2021/10/19 04:07:20;;;;;;;18.65;14.70;;;;;;;13.08;100.00;101501.44;10476723;28;20132;-86
2021/10/19 04:12:22;;;;;;;19.08;15.27;;;;;;;13.07;100.00;101492.78;10465693;28;20053;-84
2021/10/19 04:17:23;;;;;;;17.90;14.63;;;;;;;13.11;100.00;101498.91;10468799;28;20051;-84
2021/10/19 04:22:26;;;;;;;21.50;16.13;;;;;;;13.14;100.00;101501.53;10485218;28;20437;-85
2021/10/19 04:27:28;;;;;;;21.23;15.70;;;;;;;13.14;100.00;101509.31;10485465;28;20052;-84
2021/10/19 04:32:29;;;;;;;21.45;15.85;;;;;;;13.15;100.00;101508.47;10481889;28;20496;-86
2021/10/19 04:37:31;;;;;;;18.90;15.23;;;;;;;13.16;100.00;101511.13;10496004;28;20102;-85
2021/10/19 04:42:37;;;;;;;24.27;16.63;;;;;;;13.12;100.00;101511.03;10497097;28;20045;-84
2021/10/19 04:47:38;;;;;;;18.90;15.38;;;;;;;13.12;100.00;101524.03;10471276;28;20468;-85
2021/10/19 04:52:40;;;;;;;22.13;15.40;;;;;;;13.14;100.00;101522.31;10468746;28;20044;-84
2021/10/19 04:57:42;;;;;;;21.90;16.02;;;;;;;13.09;100.00;101521.38;10466451;28;20049;-87
2021/10/19 05:02:48;;;;;;;21.52;15.65;;;;;;;13.08;100.00;101517.91;10483179;28;20059;-87
2021/10/19 05:07:50;;;;;;;23.77;18.27;;;;;;;13.02;100.00;101510.00;10463586;28;20059;-85
2021/10/19 05:12:51;;;;;;;26.65;19.92;;;;;;;13.03;100.00;101511.75;10463771;28;20084;-85
2021/10/19 05:17:53;;;;;;;24.92;19.02;;;;;;;13.00;100.00;101506.53;10486482;28;20378;-85
2021/10/19 05:22:56;;;;;;;24.90;19.88;;;;;;;12.98;100.00;101501.28;10487204;28;20464;-84
2021/10/19 05:27:58;;;;;;;26.27;18.88;;;;;;;12.98;100.00;101493.50;10491324;28;20053;-84
2021/10/19 05:32:59;;;;;;;24.58;19.17;;;;;;;13.00;100.00;101486.63;10477861;28;20059;-84
2021/10/19 05:38:01;;;;;;;23.98;19.83;;;;;;;12.97;100.00;101483.97;10473906;28;20443;-83
2021/10/19 05:43:03;;;;;;;26.38;20.55;;;;;;;12.96;100.00;101476.16;10465575;28;20110;-83
2021/10/19 05:48:09;;;;;;;28.17;19.00;;;;;;;12.96;100.00;101471.84;10465577;28;20057;-83
2021/10/19 05:53:10;;;;;;;27.90;19.85;;;;;;;12.93;100.00;101471.81;10466919;28;20059;-83
2021/10/19 05:58:12;;;;;;;24.50;19.23;;;;;;;12.97;100.00;101464.91;10459529;28;20060;-83
2021/10/19 06:03:23;;;;;;;26.00;20.45;;;;;;;12.95;100.00;101470.09;10460481;28;20052;-82
2021/10/19 06:08:25;;;;;;;29.17;20.60;;;;;;;12.97;100.00;101473.56;10458404;28;20057;-82
2021/10/19 06:13:27;;;;;;;27.02;20.58;;;;;;;13.03;100.00;101477.13;10469062;28;20564;-83
2021/10/19 06:18:28;;;;;;;26.23;19.35;;;;;;;13.03;100.00;101469.31;10464251;28;20083;-82
2021/10/19 06:23:30;;;;;;;25.73;20.30;;;;;;;13.07;100.00;101484.97;10452304;28;20063;-83
2021/10/19 06:28:32;;;;;;;26.60;21.13;;;;;;;13.10;100.00;101484.13;10465412;28;20063;-82
2021/10/19 06:33:36;;;;;;;29.85;19.48;;;;;;;13.09;100.00;101472.00;10454881;28;20040;-83
2021/10/19 06:38:37;;;;;;;24.67;20.15;;;;;;;13.12;100.00;101488.53;10468612;28;20670;-83
2021/10/19 06:43:39;;;;;;;34.40;23.30;;;;;;;13.16;100.00;101479.94;10450386;28;20544;-82
2021/10/19 06:48:40;;;;;;;26.90;22.70;;;;;;;13.25;100.00;101474.88;10471242;28;20122;-82
2021/10/19 06:53:42;;;;;;;27.60;22.15;;;;;;;13.25;100.00;101487.00;10475641;28;20076;-81
2021/10/19 06:58:44;;;;;;;34.95;26.02;;;;;;;13.29;100.00;101481.00;10463715;28;20048;-82
2021/10/19 07:03:46;;;;;;;36.65;24.92;;;;;;;13.36;100.00;101481.97;10468815;28;20049;-82
2021/10/19 07:08:48;;;;;;;30.35;23.80;;;;;;;13.38;100.00;101483.72;10469206;28;20067;-81
2021/10/19 07:13:50;;;;;;;41.13;28.30;;;;;;;13.43;100.00;101497.66;10486369;28;20540;-82
2021/10/19 07:18:51;;;;;;;31.77;24.77;;;;;;;13.42;100.00;101495.03;10477660;28;20056;-82
2021/10/19 07:23:53;;;;;;;40.83;28.15;;;;;;;13.49;100.00;101489.94;10479594;28;20049;-84
2021/10/19 07:28:54;;;;;;;42.67;28.58;;;;;;;13.57;100.00;101479.66;10466148;28;20075;-80
2021/10/19 07:33:56;;;;;;;45.45;29.42;;;;;;;13.53;100.00;101483.06;10475604;28;20056;-82
2021/10/19 07:38:57;;;;;;;43.20;26.92;;;;;;;13.53;100.00;101470.94;10463430;28;20080;-81
2021/10/19 07:43:59;;;;;;;41.38;29.40;;;;;;;13.66;100.00;101476.28;10473362;28;20051;-81
2021/10/19 07:49:01;;;;;;;46.58;29.42;;;;;;;13.71;100.00;101479.81;10467775;28;20519;-82
2021/10/19 07:54:03;;;;;;;40.50;27.30;;;;;;;13.80;100.00;101479.94;10481913;28;20052;-82
2021/10/19 07:59:05;;;;;;;39.92;28.50;;;;;;;13.85;100.00;101480.00;10478101;28;20044;-81
2021/10/19 08:04:07;;;;;;;46.58;29.83;;;;;;;13.85;100.00;101467.00;10471775;28;20045;-82
2021/10/19 08:09:09;;;;;;;41.40;28.73;;;;;;;13.89;100.00;101469.63;10484003;28;20082;-82
2021/10/19 08:14:11;;;;;;;39.65;26.95;;;;;;;13.97;100.00;101473.19;10481386;28;20508;-81
2021/10/19 08:19:12;;;;;;;42.90;29.88;;;;;;;14.00;100.00;101472.34;10466009;28;20052;-81
2021/10/19 08:24:14;;;;;;;37.25;27.27;;;;;;;14.13;100.00;101460.34;10474608;28;20041;-81
2021/10/19 08:29:19;;;;;;;42.92;27.77;;;;;;;14.20;100.00;101469.97;10489076;28;20090;-81
2021/10/19 08:34:20;;;;;;;39.65;27.95;;;;;;;14.27;100.00;101451.81;10476387;28;20040;-81
2021/10/19 08:39:22;;;;;;;34.95;24.80;;;;;;;14.40;100.00;101457.13;10465660;28;20048;-81
2021/10/19 08:44:23;;;;;;;31.83;23.85;;;;;;;14.36;100.00;101457.97;10473588;28;20485;-81
2021/10/19 08:49:25;;;;;;;31.05;22.45;;;;;;;14.56;100.00;101448.63;10466700;28;20048;-80
2021/10/19 08:54:27;;;;;;;21.60;17.25;;;;;;;14.63;100.00;101450.41;10471975;28;20049;-81
2021/10/19 08:59:28;;;;;;;20.55;17.00;;;;;;;14.64;100.00;101454.78;10455002;28;20501;-80
2021/10/19 09:04:30;;;;;;;18.65;14.63;;;;;;;14.71;100.00;101455.69;10455278;28;20041;-81
2021/10/19 09:09:35;;;;;;;16.90;15.15;;;;;;;14.73;100.00;101459.16;10455433;28;20062;-81
2021/10/19 09:14:37;;;;;;;13.30;11.65;;;;;;;14.78;100.00;101460.06;10458392;28;20481;-81
2021/10/19 09:19:41;;;;;;;10.75;9.30;;;;;;;14.74;100.00;101467.00;10457292;28;20044;-81
2021/10/19 09:24:43;;;;;;;11.27;9.93;;;;;;;14.72;100.00;101468.72;10456956;28;20052;-80
2021/10/19 09:29:47;;;;;;;14.15;11.82;;;;;;;14.75;100.00;101475.69;10458454;28;20060;-81
2021/10/19 09:34:49;;;;;;;13.48;11.35;;;;;;;14.87;100.00;101467.09;10456683;28;20049;-82
2021/10/19 09:39:52;;;;;;;10.75;8.68;;;;;;;14.91;100.00;101468.84;10456092;28;20052;-82
2021/10/19 09:45:00;;;;;;;12.98;8.85;;;;;;;14.92;100.00;101468.88;10460668;28;20052;-82
2021/10/19 09:50:02;;;;;;;16.08;10.80;;;;;;;14.97;100.00;101459.34;10471582;28;20053;-81
2021/10/19 09:55:07;;;;;;;10.48;8.95;;;;;;;15.08;100.00;101464.63;10457085;28;20045;-81
2021/10/19 10:00:11;;;;;;;12.20;8.70;;;;;;;15.05;100.00;101468.09;10457133;28;20060;-81
2021/10/19 10:05:13;;;;;;;8.30;6.93;;;;;;;15.07;100.00;101463.75;10455036;28;20055;-80
2021/10/19 10:10:16;;;;;;;6.85;6.18;;;;;;;15.17;100.00;101462.09;10456766;28;20053;-79
2021/10/19 10:15:23;;;;;;;8.05;7.22;;;;;;;15.14;100.00;101469.88;10456043;28;20045;-80
2021/10/19 10:20:35;;;;;;;8.38;7.65;;;;;;;15.29;100.00;101466.50;10453719;28;20045;-81
2021/10/19 10:25:38;;;;;;;8.15;7.32;;;;;;;15.28;100.00;101465.63;10454412;28;20102;-80
2021/10/19 10:30:39;;;;;;;11.52;9.32;;;;;;;15.25;100.00;101465.59;10455177;28;20044;-79
2021/10/19 10:35:45;;;;;;;11.82;9.43;;;;;;;15.27;100.00;101460.41;10454602;28;20053;-78
2021/10/19 10:40:47;;;;;;;14.82;10.52;;;;;;;15.35;100.00;101462.19;10454368;28;20408;-79
2021/10/19 10:46:07;;;;;;;15.77;10.13;;;;;;;15.37;100.00;101451.75;10453560;28;20049;-79
2021/10/19 10:51:11;;;;;;;16.03;12.60;;;;;;;15.43;100.00;101457.03;10464952;28;20052;-78
2021/10/19 10:56:13;;;;;;;20.17;12.65;;;;;;;15.47;100.00;101450.06;10454476;28;20049;-78
2021/10/19 11:01:31;;;;;;;14.88;12.48;;;;;;;15.50;100.00;101450.97;10455525;28;20062;-78
2021/10/19 11:06:34;;;;;;;17.25;12.27;;;;;;;15.55;100.00;101454.47;10453972;28;20072;-79
2021/10/19 11:11:38;;;;;;;13.13;9.98;;;;;;;15.61;100.00;101451.88;10462412;28;20056;-78
2021/10/19 11:16:48;;;;;;;13.60;11.65;;;;;;;15.66;100.00;101440.63;10475909;28;20488;-78
2021/10/19 11:22:02;;;;;;;12.15;10.38;;;;;;;15.72;100.00;101443.25;10461120;28;20056;-78
2021/10/19 11:27:05;;;;;;;14.68;11.50;;;;;;;15.83;100.00;101434.59;10474736;28;20052;-79
2021/10/19 11:32:14;;;;;;;14.15;12.10;;;;;;;15.82;100.00;101438.03;10480757;28;20045;-79
2021/10/19 11:37:15;;;;;;;14.68;13.13;;;;;;;15.90;100.00;101425.03;10452542;28;20048;-78
2021/10/19 11:42:17;;;;;;;16.10;12.63;;;;;;;15.86;100.00;101426.75;10474196;28;20053;-79
2021/10/19 11:47:18;;;;;;;21.30;14.98;;;;;;;15.95;100.00;101418.09;10457549;28;20416;-78
2021/10/19 11:52:20;;;;;;;18.17;14.93;;;;;;;15.96;100.00;101417.22;10467385;28;20045;-78
2021/10/19 11:57:23;;;;;;;21.48;15.45;;;;;;;15.98;100.00;101407.63;10459185;28;20045;-78
2021/10/19 12:02:24;;;;;;;22.25;16.40;;;;;;;16.03;100.00;101402.44;10458428;28;20445;-78
2021/10/19 12:07:29;;;;;;;24.55;17.95;;;;;;;16.04;100.00;101401.56;10456608;28;20048;-78
2021/10/19 12:12:31;;;;;;;27.52;19.05;;;;;;;16.04;100.00;101397.22;10446293;28;20493;-78
2021/10/19 12:17:32;;;;;;;25.65;18.90;;;;;;;16.00;100.00;101399.84;10479866;28;20056;-78
2021/10/19 12:22:41;;;;;;;26.27;18.10;;;;;;;15.99;100.00;101395.47;10466263;28;20396;-79
2021/10/19 12:27:43;;;;;;;31.58;19.58;;;;;;;16.02;100.00;101393.72;10459337;28;20045;-79
2021/10/19 12:32:45;;;;;;;22.25;17.65;;;;;;;15.98;100.00;101393.72;10459196;28;20072;-78
2021/10/19 12:37:47;;;;;;;21.38;16.30;;;;;;;15.85;100.00;101396.31;10459771;28;20390;-79
2021/10/19 12:42:49;;;;;;;19.02;14.52;;;;;;;16.07;100.00;101396.34;10476809;28;20060;-81
2021/10/19 12:47:50;;;;;;;21.02;15.82;;;;;;;16.10;100.00;101386.78;10459109;28;20045;-79
2021/10/19 12:52:52;;;;;;;24.23;18.20;;;;;;;16.17;100.00;101390.28;10470280;28;20068;-79
2021/10/19 12:57:54;;;;;;;21.67;17.27;;;;;;;16.13;100.00;101376.34;10458482;28;20041;-79
2021/10/19 13:02:56;;;;;;;26.42;20.25;;;;;;;16.14;100.00;101369.38;10459679;28;20618;-78
2021/10/19 13:08:00;;;;;;;26.23;20.27;;;;;;;16.16;100.00;101365.00;10457282;28;20053;-78
2021/10/19 13:13:01;;;;;;;25.15;19.75;;;;;;;16.26;100.00;101365.91;10457251;28;20090;-79
2021/10/19 13:18:07;;;;;;;24.65;20.42;;;;;;;16.17;100.00;101372.00;10459923;28;20053;-78
2021/10/19 13:23:08;;;;;;;27.03;21.43;;;;;;;16.21;100.00;101378.94;10457595;28;20516;-78
2021/10/19 13:28:11;;;;;;;26.05;20.48;;;;;;;16.18;100.00;101365.91;10456953;28;20053;-78
2021/10/19 13:33:13;;;;;;;27.42;20.67;;;;;;;16.25;100.00;101361.56;10457768;28;20049;-78
2021/10/19 13:38:15;;;;;;;28.63;21.17;;;;;;;16.26;100.00;101366.75;10457073;28;20044;-78
2021/10/19 13:43:17;;;;;;;30.77;21.27;;;;;;;16.28;100.00;101359.81;10457476;28;20776;-79
2021/10/19 13:48:19;;;;;;;27.20;20.60;;;;;;;16.29;100.00;101365.91;10456818;28;20048;-79
2021/10/19 13:53:21;;;;;;;21.45;17.55;;;;;;;16.34;100.00;101361.56;10457311;28;20052;-79
2021/10/19 13:58:25;;;;;;;25.02;17.67;;;;;;;16.26;100.00;101358.06;10463592;28;20094;-79
2021/10/19 14:03:27;;;;;;;21.33;18.42;;;;;;;16.34;100.00;101358.94;10469692;28;20045;-78
2021/10/19 14:08:30;;;;;;;26.88;21.58;;;;;;;16.32;100.00;101358.06;10475275;28;20063;-78
2021/10/19 14:13:36;;;;;;;25.15;20.50;;;;;;;16.41;100.00;101353.72;10453754;28;20443;-78
2021/10/19 14:18:38;;;;;;;24.38;19.33;;;;;;;16.44;100.00;101343.25;10456493;28;20112;-77
2021/10/19 14:23:39;;;;;;;24.52;19.40;;;;;;;16.48;100.00;101341.50;10455937;28;20052;-78
2021/10/19 14:28:41;;;;;;;28.00;21.30;;;;;;;16.53;100.00;101347.59;10455172;28;20044;-78
2021/10/19 14:33:44;;;;;;;29.75;21.92;;;;;;;16.54;100.00;101349.31;10454036;28;20071;-78
2021/10/19 14:38:46;;;;;;;28.70;22.00;;;;;;;16.62;100.00;101326.69;10455231;28;20052;-78
2021/10/19 14:43:48;;;;;;;30.13;21.98;;;;;;;16.67;100.00;101321.44;10453164;28;20072;-78
2021/10/19 14:48:50;;;;;;;28.30;21.65;;;;;;;16.70;100.00;101310.97;10452963;28;20044;-79
2021/10/19 14:53:52;;;;;;;26.05;20.25;;;;;;;16.66;100.00;101315.34;10453550;28;20048;-77
2021/10/19 14:58:56;;;;;;;33.10;23.00;;;;;;;16.70;100.00;101305.75;10453568;28;20044;-77
2021/10/19 15:03:57;;;;;;;31.63;23.00;;;;;;;16.77;100.00;101307.50;10452638;28;20508;-77
2021/10/19 15:08:59;;;;;;;25.70;20.23;;;;;;;16.71;100.00;101297.06;10454793;28;20052;-77
2021/10/19 15:14:00;;;;;;;29.23;21.13;;;;;;;16.71;100.00;101294.47;10453613;28;20053;-78
2021/10/19 15:19:02;;;;;;;29.42;20.63;;;;;;;16.73;100.00;101282.25;10453476;28;20053;-78
2021/10/19 15:24:04;;;;;;;31.83;18.38;;;;;;;16.69;100.00;101277.91;10454702;28;20393;-78
2021/10/19 15:29:06;;;;;;;24.83;17.58;;;;;;;16.63;100.00;101277.91;10453817;28;20055;-78
2021/10/19 15:34:09;;;;;;;27.60;19.67;;;;;;;16.46;100.00;101272.75;10453124;28;20412;-77
2021/10/19 15:39:12;;;;;;;25.20;17.85;;;;;;;16.40;100.00;101272.75;10453462;28;20061;-77
2021/10/19 15:44:14;;;;;;;24.92;17.85;;;;;;;16.46;100.00;101267.50;10453903;28;20049;-78
2021/10/19 15:49:22;;;;;;;23.90;16.25;;;;;;;16.32;100.00;101256.22;10478590;28;20150;-78
2021/10/19 15:54:24;;;;;;;24.95;16.85;;;;;;;16.27;100.00;101255.34;10459381;28;20484;-78
2021/10/19 15:59:26;;;;;;;25.42;17.77;;;;;;;16.41;100.00;101246.63;10454409;28;20052;-78
2021/10/19 16:04:28;;;;;;;21.40;16.25;;;;;;;16.23;100.00;101251.91;10448447;28;20060;-78
2021/10/19 16:09:30;;;;;;;21.73;15.95;;;;;;;16.29;100.00;101257.09;10457092;28;20053;-78
2021/10/19 16:14:32;;;;;;;22.02;16.00;;;;;;;16.24;100.00;101240.56;10471037;28;20053;-78
2021/10/19 16:19:33;;;;;;;21.48;16.73;;;;;;;16.09;100.00;101246.69;10452568;28;20103;-78
2021/10/19 16:24:35;;;;;;;24.48;18.33;;;;;;;16.08;100.00;101244.09;10453804;28;20040;-78
2021/10/19 16:29:36;;;;;;;22.40;15.35;;;;;;;16.01;100.00;101243.22;10457908;28;20057;-78
2021/10/19 16:34:40;;;;;;;23.63;16.63;;;;;;;15.96;100.00;101244.97;10459905;28;20056;-78
2021/10/19 16:39:42;;;;;;;19.83;14.98;;;;;;;16.14;100.00;101255.38;10459617;28;20096;-78
2021/10/19 16:44:43;;;;;;;21.63;14.48;;;;;;;16.19;100.00;101244.06;10459473;28;20489;-78
2021/10/19 16:49:45;;;;;;;20.83;14.18;;;;;;;16.11;100.00;101238.84;10484802;28;20060;-78
2021/10/19 16:54:47;;;;;;;21.52;15.73;;;;;;;16.07;100.00;101240.59;10482336;28;20060;-78
2021/10/19 16:59:48;;;;;;;24.63;15.20;;;;;;;15.99;100.00;101244.09;10472120;28;20056;-78
2021/10/19 17:04:50;;;;;;;22.67;16.58;;;;;;;16.05;100.00;101231.91;10476346;28;20523;-81
2021/10/19 17:09:55;;;;;;;18.95;15.07;;;;;;;15.94;100.00;101238.91;10457684;28;20061;-81
2021/10/19 17:14:57;;;;;;;28.35;17.10;;;;;;;15.99;100.00;101231.03;10457916;28;20049;-80
2021/10/19 17:20:02;;;;;;;28.23;18.27;;;;;;;15.98;100.00;101235.38;10455965;28;20060;-79
2021/10/19 17:25:05;;;;;;;23.65;16.00;;;;;;;15.92;100.00;101205.81;10456681;28;20056;-81
2021/10/19 17:30:12;;;;;;;23.20;15.13;;;;;;;15.94;100.00;101206.69;10456828;28;20098;-80
2021/10/19 17:35:14;;;;;;;21.35;15.05;;;;;;;15.96;100.00;101210.19;10453408;28;20124;-80
2021/10/19 17:40:26;;;;;;;22.00;15.45;;;;;;;15.91;100.00;101202.34;10443339;28;20543;-80
2021/10/19 17:45:28;;;;;;;26.27;16.90;;;;;;;15.85;100.00;101199.75;10435835;28;20045;-79
2021/10/19 17:50:30;;;;;;;33.42;16.48;;;;;;;15.89;100.00;101201.50;10440921;28;20057;-81
2021/10/19 17:55:33;;;;;;;18.92;14.73;;;;;;;15.82;100.00;101187.56;10430647;28;20473;-80
2021/10/19 18:00:35;;;;;;;25.38;16.77;;;;;;;15.72;100.00;101198.03;10433445;28;20041;-80
2021/10/19 18:05:38;;;;;;;18.55;14.70;;;;;;;15.64;100.00;101196.28;10438795;28;20135;-81
2021/10/19 18:10:40;;;;;;;24.88;16.73;;;;;;;15.60;100.00;101191.06;10455794;28;20087;-80
2021/10/19 18:15:42;;;;;;;21.25;16.75;;;;;;;15.52;100.00;101188.41;10456137;28;20071;-79
2021/10/19 18:20:44;;;;;;;18.80;14.25;;;;;;;15.54;100.00;101196.22;10470211;28;20075;-79
2021/10/19 18:25:48;;;;;;;21.35;15.45;;;;;;;15.57;100.00;101191.91;10463953;28;20512;-79
2021/10/19 18:30:52;;;;;;;19.48;13.55;;;;;;;15.55;100.00;101195.41;10463481;28;20055;-80
2021/10/19 18:35:56;;;;;;;19.70;14.10;;;;;;;15.50;100.00;101191.91;10454954;28;20068;-80
2021/10/19 18:40:58;;;;;;;18.60;13.77;;;;;;;15.42;100.00;101209.28;10456409;28;20048;-80
2021/10/19 18:45:59;;;;;;;22.30;15.35;;;;;;;15.60;100.00;101186.69;10454345;28;20509;-79
2021/10/19 18:51:01;;;;;;;20.73;13.32;;;;;;;15.60;100.00;101185.84;10463463;28;20083;-79
2021/10/19 18:56:03;;;;;;;21.95;13.75;;;;;;;15.43;100.00;101188.44;10455197;28;20056;-80
2021/10/19 19:01:05;;;;;;;16.00;12.18;;;;;;;15.72;100.00;101183.25;10454530;28;20053;-80
2021/10/19 19:06:08;;;;;;;18.60;14.15;;;;;;;15.43;100.00;101172.78;10453629;28;20061;-80
2021/10/19 19:11:10;;;;;;;17.42;13.45;;;;;;;15.48;100.00;101167.56;10464506;28;20049;-80
2021/10/19 19:16:12;;;;;;;18.70;13.75;;;;;;;15.52;100.00;101164.09;10457008;28;20045;-81
2021/10/19 19:21:14;;;;;;;18.20;13.13;;;;;;;15.59;100.00;101164.06;10449179;28;20063;-80
2021/10/19 19:26:19;;;;;;;20.23;13.75;;;;;;;15.56;100.00;101161.47;10447295;28;20497;-81
2021/10/19 19:31:20;;;;;;;20.35;14.20;;;;;;;15.41;100.00;101158.00;10459036;28;20162;-81
2021/10/19 19:36:23;;;;;;;21.35;14.98;;;;;;;15.55;100.00;101157.16;10461894;28;20051;-81
2021/10/19 19:41:27;;;;;;;20.50;13.15;;;;;;;15.58;100.00;101149.28;10457674;28;20053;-79
2021/10/19 19:46:28;;;;;;;18.00;13.32;;;;;;;15.61;100.00;101140.63;10456344;28;20056;-80
2021/10/19 19:51:37;;;;;;;20.55;14.93;;;;;;;15.50;100.00;101140.63;10474128;28;20056;-80
2021/10/19 19:56:39;;;;;;;23.88;14.90;;;;;;;15.37;100.00;101138.88;10462682;28;20048;-79
2021/10/19 20:01:42;;;;;;;20.23;15.40;;;;;;;15.52;100.00;101128.44;10452591;28;20049;-80
2021/10/19 20:06:44;;;;;;;22.35;15.15;;;;;;;15.41;100.00;101124.09;10480841;28;20079;-80
2021/10/19 20:11:45;;;;;;;20.27;14.93;;;;;;;15.32;100.00;101123.25;10458412;28;20057;-79
2021/10/19 20:16:47;;;;;;;18.00;15.32;;;;;;;15.33;100.00;101106.75;10460514;28;20052;-79
2021/10/19 20:21:50;;;;;;;20.70;13.15;;;;;;;15.45;100.00;101113.69;10459701;28;20132;-80
2021/10/19 20:26:52;;;;;;;19.77;14.00;;;;;;;15.28;100.00;101108.47;10461487;28;20048;-79
2021/10/19 20:31:54;;;;;;;17.90;12.43;;;;;;;15.33;100.00;101108.47;10459941;28;20060;-80
2021/10/19 20:36:56;;;;;;;17.77;13.00;;;;;;;15.28;100.00;101102.41;10459599;28;20044;-80
2021/10/19 20:41:58;;;;;;;17.02;13.38;;;;;;;15.38;100.00;101107.59;10459575;28;20045;-79
2021/10/19 20:47:00;;;;;;;14.77;11.45;;;;;;;15.49;100.00;101093.69;10460580;28;20110;-80
2021/10/19 20:52:01;;;;;;;15.60;12.00;;;;;;;15.25;100.00;101102.38;10471692;28;20045;-79
2021/10/19 20:57:03;;;;;;;17.95;12.05;;;;;;;15.16;100.00;101092.84;10459140;28;20045;-80
2021/10/19 21:02:05;;;;;;;20.88;14.65;;;;;;;15.07;100.00;101085.88;10460002;28;20056;-81
2021/10/19 21:07:07;;;;;;;15.80;11.48;;;;;;;15.18;100.00;101085.88;10459628;28;20083;-80
2021/10/19 21:12:10;;;;;;;17.90;12.68;;;;;;;15.20;100.00;101078.06;10458691;28;20084;-80
2021/10/19 21:17:12;;;;;;;17.10;12.10;;;;;;;15.20;100.00;101078.06;10456997;28;20088;-80
2021/10/19 21:22:14;;;;;;;14.45;12.32;;;;;;;14.90;100.00;101078.91;10489537;28;20059;-80
2021/10/19 21:27:20;;;;;;;14.50;11.65;;;;;;;14.98;100.00;101077.22;10500490;28;20048;-80
2021/10/19 21:32:22;;;;;;;18.42;13.02;;;;;;;14.85;100.00;101079.78;10499169;28;20052;-79
2021/10/19 21:37:24;;;;;;;14.07;12.10;;;;;;;15.04;100.00;101064.19;10462859;28;20045;-79
2021/10/19 21:42:26;;;;;;;15.77;12.10;;;;;;;15.04;100.00;101051.16;10456936;28;20055;-79
2021/10/19 21:47:27;;;;;;;14.60;12.10;;;;;;;15.04;100.00;101039.00;10458191;28;20056;-80
2021/10/19 21:52:29;;;;;;;12.77;10.57;;;;;;;14.72;100.00;101033.75;10475176;28;20059;-79
2021/10/19 21:57:32;;;;;;;13.63;10.75;;;;;;;14.97;100.00;101036.38;10486208;28;20053;-79
2021/10/19 22:02:34;;;;;;;14.50;9.98;;;;;;;14.94;100.00;101025.97;10457327;28;20059;-80
2021/10/19 22:07:35;;;;;;;15.63;9.70;;;;;;;14.95;100.00;101010.31;10455740;28;20068;-80
2021/10/19 22:12:37;;;;;;;12.50;9.48;;;;;;;14.90;100.00;101006.84;10457132;28;20077;-80
2021/10/19 22:17:38;;;;;;;12.23;9.13;;;;;;;14.84;100.00;101002.50;10455845;28;20048;-80
2021/10/19 22:22:40;;;;;;;13.38;9.85;;;;;;;14.84;100.00;101004.25;10455861;28;20056;-80